sensor_id;sensor_type;location;lat;lon;timestamp;pressure;altitude;pressure_sealevel;temperature;humidity
31299;BME280;17927;52.350;13.402;2023-01-24T00:00:26;103540.44;;;7.01;54.68
31299;BME280;17927;52.350;13.402;2023-01-24T00:02:51;103540.38;;;7.03;54.66
31299;BME280;17927;52.350;13.402;2023-01-24T00:05:17;103539.50;;;7.03;54.60
31299;BME280;17927;52.350;13.402;2023-01-24T00:07:42;103539.50;;;7.03;54.70
31299;BME280;17927;52.350;13.402;2023-01-24T00:10:11;103547.50;;;7.04;54.75
31299;BME280;17927;52.350;13.402;2023-01-24T00:12:37;103544.78;;;7.06;54.87
31299;BME280;17927;52.350;13.402;2023-01-24T00:15:03;103545.63;;;7.08;54.73
31299;BME280;17927;52.350;13.402;2023-01-24T00:17:28;103548.25;;;7.09;54.49
31299;BME280;17927;52.350;13.402;2023-01-24T00:20:00;103551.00;;;7.08;54.89
31299;BME280;17927;52.350;13.402;2023-01-24T00:22:25;103543.88;;;7.05;54.91
31299;BME280;17927;52.350;13.402;2023-01-24T00:24:50;103549.22;;;7.07;54.64
31299;BME280;17927;52.350;13.402;2023-01-24T00:27:16;103536.72;;;7.06;54.63
31299;BME280;17927;52.350;13.402;2023-01-24T00:29:41;103545.66;;;7.06;54.68
31299;BME280;17927;52.350;13.402;2023-01-24T00:32:07;103540.28;;;7.06;54.80
31299;BME280;17927;52.350;13.402;2023-01-24T00:34:35;103533.19;;;7.04;54.74
31299;BME280;17927;52.350;13.402;2023-01-24T00:37:06;103541.28;;;7.02;54.72
31299;BME280;17927;52.350;13.402;2023-01-24T00:39:31;103539.66;;;6.98;54.58
31299;BME280;17927;52.350;13.402;2023-01-24T00:41:57;103534.38;;;6.95;54.84
31299;BME280;17927;52.350;13.402;2023-01-24T00:44:22;103544.31;;;6.93;54.97
31299;BME280;17927;52.350;13.402;2023-01-24T00:46:51;103538.94;;;6.93;54.71
31299;BME280;17927;52.350;13.402;2023-01-24T00:49:16;103541.69;;;6.91;55.08
31299;BME280;17927;52.350;13.402;2023-01-24T00:51:41;103547.06;;;6.91;54.68
31299;BME280;17927;52.350;13.402;2023-01-24T00:54:07;103547.97;;;6.90;54.88
31299;BME280;17927;52.350;13.402;2023-01-24T00:56:32;103550.69;;;6.89;54.79
31299;BME280;17927;52.350;13.402;2023-01-24T00:58:57;103548.06;;;6.87;54.62
31299;BME280;17927;52.350;13.402;2023-01-24T01:01:22;103549.88;;;6.86;54.91
31299;BME280;17927;52.350;13.402;2023-01-24T01:03:48;103544.50;;;6.86;54.66
31299;BME280;17927;52.350;13.402;2023-01-24T01:06:15;103544.50;;;6.86;54.78
31299;BME280;17927;52.350;13.402;2023-01-24T01:08:40;103546.31;;;6.86;54.59
31299;BME280;17927;52.350;13.402;2023-01-24T01:11:06;103544.50;;;6.86;54.88
31299;BME280;17927;52.350;13.402;2023-01-24T01:13:31;103545.41;;;6.85;54.82
31299;BME280;17927;52.350;13.402;2023-01-24T01:16:10;103542.72;;;6.85;54.56
31299;BME280;17927;52.350;13.402;2023-01-24T01:18:37;103538.31;;;6.84;54.61
31299;BME280;17927;52.350;13.402;2023-01-24T01:21:02;103534.63;;;6.87;54.71
31299;BME280;17927;52.350;13.402;2023-01-24T01:23:28;103531.97;;;6.85;54.76
31299;BME280;17927;52.350;13.402;2023-01-24T01:25:58;103540.09;;;6.84;54.69
31299;BME280;17927;52.350;13.402;2023-01-24T01:28:23;103548.16;;;6.84;54.56
31299;BME280;17927;52.350;13.402;2023-01-24T01:30:51;103556.28;;;6.82;54.44
31299;BME280;17927;52.350;13.402;2023-01-24T01:33:17;103551.84;;;6.81;54.47
31299;BME280;17927;52.350;13.402;2023-01-24T01:35:42;103561.69;;;6.81;54.52
31299;BME280;17927;52.350;13.402;2023-01-24T01:38:08;103562.59;;;6.81;54.50
31299;BME280;17927;52.350;13.402;2023-01-24T01:40:33;103555.47;;;6.80;54.49
31299;BME280;17927;52.350;13.402;2023-01-24T01:42:58;103566.22;;;6.80;54.66
31299;BME280;17927;52.350;13.402;2023-01-24T01:45:43;103560.00;;;6.78;54.28
31299;BME280;17927;52.350;13.402;2023-01-24T01:48:15;103554.63;;;6.78;54.37
31299;BME280;17927;52.350;13.402;2023-01-24T01:50:47;103557.31;;;6.78;54.73
31299;BME280;17927;52.350;13.402;2023-01-24T01:53:14;103556.41;;;6.78;54.31
31299;BME280;17927;52.350;13.402;2023-01-24T01:55:43;103553.78;;;6.76;54.57
31299;BME280;17927;52.350;13.402;2023-01-24T01:58:12;103559.22;;;6.75;54.63
31299;BME280;17927;52.350;13.402;2023-01-24T02:00:37;103557.47;;;6.74;54.63
31299;BME280;17927;52.350;13.402;2023-01-24T02:03:07;103560.19;;;6.72;54.58
31299;BME280;17927;52.350;13.402;2023-01-24T02:05:53;103556.72;;;6.68;54.63
31299;BME280;17927;52.350;13.402;2023-01-24T02:08:21;103563.00;;;6.69;54.45
31299;BME280;17927;52.350;13.402;2023-01-24T02:10:49;103567.47;;;6.68;54.39
31299;BME280;17927;52.350;13.402;2023-01-24T02:13:34;103559.50;;;6.65;54.46
31299;BME280;17927;52.350;13.402;2023-01-24T02:16:00;103565.81;;;6.64;54.51
31299;BME280;17927;52.350;13.402;2023-01-24T02:18:30;103564.03;;;6.63;54.44
31299;BME280;17927;52.350;13.402;2023-01-24T02:20:56;103562.28;;;6.62;54.49
31299;BME280;17927;52.350;13.402;2023-01-24T02:23:50;103568.63;;;6.61;54.17
31299;BME280;17927;52.350;13.402;2023-01-24T02:26:24;103566.94;;;6.57;54.20
31299;BME280;17927;52.350;13.402;2023-01-24T02:29:05;103558.81;;;6.59;54.10
31299;BME280;17927;52.350;13.402;2023-01-24T02:34:15;103562.75;;;6.47;54.63
31299;BME280;17927;52.350;13.402;2023-01-24T02:36:41;103565.34;;;6.50;54.29
31299;BME280;17927;52.350;13.402;2023-01-24T02:39:10;103566.19;;;6.52;53.99
31299;BME280;17927;52.350;13.402;2023-01-24T02:41:45;103564.44;;;6.51;54.05
31299;BME280;17927;52.350;13.402;2023-01-24T02:44:30;103560.88;;;6.50;54.15
31299;BME280;17927;52.350;13.402;2023-01-24T02:46:57;103569.88;;;6.49;54.13
31299;BME280;17927;52.350;13.402;2023-01-24T02:49:22;103573.41;;;6.50;54.16
31299;BME280;17927;52.350;13.402;2023-01-24T02:51:47;103577.00;;;6.50;54.14
31299;BME280;17927;52.350;13.402;2023-01-24T02:54:32;103571.63;;;6.50;54.04
31299;BME280;17927;52.350;13.402;2023-01-24T02:56:57;103573.41;;;6.50;53.91
31299;BME280;17927;52.350;13.402;2023-01-24T02:59:40;103569.03;;;6.47;54.06
31299;BME280;17927;52.350;13.402;2023-01-24T03:02:06;103560.06;;;6.47;53.55
31299;BME280;17927;52.350;13.402;2023-01-24T03:04:31;103558.28;;;6.47;53.95
31299;BME280;17927;52.350;13.402;2023-01-24T03:06:56;103568.97;;;6.49;53.89
31299;BME280;17927;52.350;13.402;2023-01-24T03:09:21;103566.28;;;6.49;53.84
31299;BME280;17927;52.350;13.402;2023-01-24T03:12:00;103569.03;;;6.47;53.52
31299;BME280;17927;52.350;13.402;2023-01-24T03:14:45;103567.25;;;6.46;53.59
31299;BME280;17927;52.350;13.402;2023-01-24T03:17:28;103565.56;;;6.44;53.73
31299;BME280;17927;52.350;13.402;2023-01-24T03:20:13;103563.81;;;6.43;53.75
31299;BME280;17927;52.350;13.402;2023-01-24T03:22:56;103564.75;;;6.40;53.62
31299;BME280;17927;52.350;13.402;2023-01-24T03:25:40;103565.75;;;6.37;53.68
31299;BME280;17927;52.350;13.402;2023-01-24T03:28:24;103571.13;;;6.37;53.71
31299;BME280;17927;52.350;13.402;2023-01-24T03:31:08;103571.16;;;6.36;53.87
31299;BME280;17927;52.350;13.402;2023-01-24T03:33:52;103566.72;;;6.35;53.80
31299;BME280;17927;52.350;13.402;2023-01-24T03:36:36;103565.81;;;6.34;53.60
31299;BME280;17927;52.350;13.402;2023-01-24T03:39:02;103564.03;;;6.35;53.63
31299;BME280;17927;52.350;13.402;2023-01-24T03:41:46;103560.44;;;6.34;53.20
31299;BME280;17927;52.350;13.402;2023-01-24T03:44:11;103556.91;;;6.34;53.58
31299;BME280;17927;52.350;13.402;2023-01-24T03:46:36;103562.22;;;6.35;53.37
31299;BME280;17927;52.350;13.402;2023-01-24T03:49:06;103568.56;;;6.33;53.12
31299;BME280;17927;52.350;13.402;2023-01-24T03:51:31;103561.50;;;6.30;53.29
31299;BME280;17927;52.350;13.402;2023-01-24T03:54:15;103558.84;;;6.29;53.31
31299;BME280;17927;52.350;13.402;2023-01-24T03:56:40;103560.69;;;6.27;53.09
31299;BME280;17927;52.350;13.402;2023-01-24T03:59:05;103557.13;;;6.26;53.07
31299;BME280;17927;52.350;13.402;2023-01-24T04:01:30;103556.25;;;6.25;53.24
31299;BME280;17927;52.350;13.402;2023-01-24T04:03:56;103554.47;;;6.24;53.08
31299;BME280;17927;52.350;13.402;2023-01-24T04:06:21;103561.66;;;6.24;53.37
31299;BME280;17927;52.350;13.402;2023-01-24T04:08:46;103558.97;;;6.24;52.86
31299;BME280;17927;52.350;13.402;2023-01-24T04:11:11;103551.00;;;6.22;53.18
31299;BME280;17927;52.350;13.402;2023-01-24T04:13:37;103559.06;;;6.21;53.25
31299;BME280;17927;52.350;13.402;2023-01-24T04:16:02;103554.59;;;6.21;53.13
31299;BME280;17927;52.350;13.402;2023-01-24T04:18:27;103551.00;;;6.22;53.21
31299;BME280;17927;52.350;13.402;2023-01-24T04:20:52;103543.81;;;6.23;53.28
31299;BME280;17927;52.350;13.402;2023-01-24T04:23:18;103542.88;;;6.24;53.18
31299;BME280;17927;52.350;13.402;2023-01-24T04:25:49;103546.47;;;6.23;53.01
31299;BME280;17927;52.350;13.402;2023-01-24T04:28:19;103540.25;;;6.22;52.91
31299;BME280;17927;52.350;13.402;2023-01-24T04:30:44;103551.84;;;6.23;52.75
31299;BME280;17927;52.350;13.402;2023-01-24T04:33:09;103545.63;;;6.22;53.16
31299;BME280;17927;52.350;13.402;2023-01-24T04:35:35;103546.47;;;6.23;52.76
31299;BME280;17927;52.350;13.402;2023-01-24T04:38:01;103542.03;;;6.22;53.06
31299;BME280;17927;52.350;13.402;2023-01-24T04:40:26;103546.53;;;6.21;53.00
31299;BME280;17927;52.350;13.402;2023-01-24T04:42:51;103545.69;;;6.19;53.05
31299;BME280;17927;52.350;13.402;2023-01-24T04:45:16;103545.69;;;6.19;53.09
31299;BME280;17927;52.350;13.402;2023-01-24T04:47:42;103535.06;;;6.16;52.92
31299;BME280;17927;52.350;13.402;2023-01-24T04:50:07;103551.16;;;6.16;52.99
31299;BME280;17927;52.350;13.402;2023-01-24T04:52:33;103541.28;;;6.17;53.22
31299;BME280;17927;52.350;13.402;2023-01-24T04:54:58;103534.13;;;6.17;53.10
31299;BME280;17927;52.350;13.402;2023-01-24T04:57:23;103534.06;;;6.19;53.07
31299;BME280;17927;52.350;13.402;2023-01-24T04:59:49;103537.59;;;6.21;52.88
31299;BME280;17927;52.350;13.402;2023-01-24T05:02:14;103534.06;;;6.19;53.05
31299;BME280;17927;52.350;13.402;2023-01-24T05:04:39;103527.78;;;6.20;52.98
31299;BME280;17927;52.350;13.402;2023-01-24T05:07:05;103534.06;;;6.19;53.13
31299;BME280;17927;52.350;13.402;2023-01-24T05:09:30;103538.50;;;6.20;52.69
31299;BME280;17927;52.350;13.402;2023-01-24T05:11:55;103537.66;;;6.19;52.61
31299;BME280;17927;52.350;13.402;2023-01-24T05:14:21;103545.69;;;6.19;53.00
31299;BME280;17927;52.350;13.402;2023-01-24T05:16:46;103546.63;;;6.18;52.91
31299;BME280;17927;52.350;13.402;2023-01-24T05:19:11;103548.38;;;6.19;53.16
31299;BME280;17927;52.350;13.402;2023-01-24T05:21:36;103544.81;;;6.19;52.99
31299;BME280;17927;52.350;13.402;2023-01-24T05:24:02;103539.44;;;6.19;53.20
31299;BME280;17927;52.350;13.402;2023-01-24T05:26:28;103543.88;;;6.20;52.95
31299;BME280;17927;52.350;13.402;2023-01-24T05:28:53;103556.44;;;6.19;53.18
31299;BME280;17927;52.350;13.402;2023-01-24T05:31:19;103551.00;;;6.21;52.88
31299;BME280;17927;52.350;13.402;2023-01-24T05:33:44;103545.63;;;6.22;53.16
31299;BME280;17927;52.350;13.402;2023-01-24T05:36:13;103551.84;;;6.23;53.07
31299;BME280;17927;52.350;13.402;2023-01-24T05:38:38;103559.97;;;6.21;53.08
31299;BME280;17927;52.350;13.402;2023-01-24T05:41:06;103556.38;;;6.21;52.87
31299;BME280;17927;52.350;13.402;2023-01-24T05:43:32;103554.63;;;6.20;52.75
31299;BME280;17927;52.350;13.402;2023-01-24T05:46:03;103561.81;;;6.19;52.78
31299;BME280;17927;52.350;13.402;2023-01-24T05:48:29;103561.81;;;6.19;53.08
31299;BME280;17927;52.350;13.402;2023-01-24T05:51:06;103562.69;;;6.20;52.93
31299;BME280;17927;52.350;13.402;2023-01-24T05:53:33;103555.59;;;6.17;52.92
31299;BME280;17927;52.350;13.402;2023-01-24T05:56:05;103561.00;;;6.16;52.88
31299;BME280;17927;52.350;13.402;2023-01-24T05:58:35;103557.50;;;6.14;52.57
31299;BME280;17927;52.350;13.402;2023-01-24T06:01:05;103559.34;;;6.12;52.87
31299;BME280;17927;52.350;13.402;2023-01-24T06:03:31;103560.31;;;6.09;52.83
31299;BME280;17927;52.350;13.402;2023-01-24T06:05:56;103567.44;;;6.10;53.06
31299;BME280;17927;52.350;13.402;2023-01-24T06:08:21;103575.53;;;6.08;52.87
31299;BME280;17927;52.350;13.402;2023-01-24T06:10:47;103578.16;;;6.10;52.97
31299;BME280;17927;52.350;13.402;2023-01-24T06:13:13;103577.25;;;6.11;52.76
31299;BME280;17927;52.350;13.402;2023-01-24T06:15:39;103583.50;;;6.12;52.52
31299;BME280;17927;52.350;13.402;2023-01-24T06:18:05;103578.97;;;6.14;52.64
31299;BME280;17927;52.350;13.402;2023-01-24T06:20:31;103579.91;;;6.13;52.87
31299;BME280;17927;52.350;13.402;2023-01-24T06:23:05;103573.63;;;6.12;52.75
31299;BME280;17927;52.350;13.402;2023-01-24T06:25:31;103579.00;;;6.12;52.86
31299;BME280;17927;52.350;13.402;2023-01-24T06:27:57;103589.72;;;6.14;52.77
31299;BME280;17927;52.350;13.402;2023-01-24T06:30:22;103588.81;;;6.13;52.99
31299;BME280;17927;52.350;13.402;2023-01-24T06:35:31;103599.53;;;6.15;52.82
31299;BME280;17927;52.350;13.402;2023-01-24T06:37:58;103601.38;;;6.13;52.83
31299;BME280;17927;52.350;13.402;2023-01-24T06:40:24;103598.63;;;6.14;52.78
31299;BME280;17927;52.350;13.402;2023-01-24T06:42:50;103601.25;;;6.16;52.72
31299;BME280;17927;52.350;13.402;2023-01-24T06:45:16;103599.53;;;6.15;52.93
31299;BME280;17927;52.350;13.402;2023-01-24T06:47:41;103603.94;;;6.16;52.72
31299;BME280;17927;52.350;13.402;2023-01-24T06:50:16;103614.69;;;6.16;52.65
31299;BME280;17927;52.350;13.402;2023-01-24T06:52:48;103615.66;;;6.15;52.75
31299;BME280;17927;52.350;13.402;2023-01-24T06:55:14;103622.81;;;6.14;52.60
31299;BME280;17927;52.350;13.402;2023-01-24T06:57:40;103619.25;;;6.14;52.42
31299;BME280;17927;52.350;13.402;2023-01-24T07:00:06;103622.81;;;6.14;52.89
31299;BME280;17927;52.350;13.402;2023-01-24T07:02:31;103623.69;;;6.15;52.66
31299;BME280;17927;52.350;13.402;2023-01-24T07:04:57;103632.63;;;6.15;52.81
31299;BME280;17927;52.350;13.402;2023-01-24T07:07:22;103639.81;;;6.15;52.72
31299;BME280;17927;52.350;13.402;2023-01-24T07:09:47;103632.69;;;6.12;52.56
31299;BME280;17927;52.350;13.402;2023-01-24T07:12:12;103640.75;;;6.12;52.79
31299;BME280;17927;52.350;13.402;2023-01-24T07:14:38;103641.59;;;6.14;52.79
31299;BME280;17927;52.350;13.402;2023-01-24T07:17:03;103651.47;;;6.14;52.82
31299;BME280;17927;52.350;13.402;2023-01-24T07:19:29;103644.28;;;6.14;52.77
31299;BME280;17927;52.350;13.402;2023-01-24T07:21:54;103653.19;;;6.16;52.60
31299;BME280;17927;52.350;13.402;2023-01-24T07:24:24;103650.41;;;6.19;52.68
31299;BME280;17927;52.350;13.402;2023-01-24T07:26:50;103655.78;;;6.19;52.52
31299;BME280;17927;52.350;13.402;2023-01-24T07:29:16;103659.31;;;6.21;52.74
31299;BME280;17927;52.350;13.402;2023-01-24T07:31:42;103661.06;;;6.22;52.60
31299;BME280;17927;52.350;13.402;2023-01-24T07:34:07;103660.13;;;6.23;52.47
31299;BME280;17927;52.350;13.402;2023-01-24T07:36:32;103662.84;;;6.22;52.65
31299;BME280;17927;52.350;13.402;2023-01-24T07:38:57;103667.31;;;6.23;52.54
31299;BME280;17927;52.350;13.402;2023-01-24T07:41:23;103666.47;;;6.21;52.53
31299;BME280;17927;52.350;13.402;2023-01-24T07:43:49;103667.34;;;6.21;52.62
31299;BME280;17927;52.350;13.402;2023-01-24T07:46:14;103667.34;;;6.21;52.65
31299;BME280;17927;52.350;13.402;2023-01-24T07:48:39;103667.31;;;6.23;52.46
31299;BME280;17927;52.350;13.402;2023-01-24T07:51:05;103664.56;;;6.24;52.55
31299;BME280;17927;52.350;13.402;2023-01-24T07:53:30;103668.16;;;6.25;52.49
31299;BME280;17927;52.350;13.402;2023-01-24T07:55:59;103662.72;;;6.27;52.31
31299;BME280;17927;52.350;13.402;2023-01-24T07:58:24;103660.03;;;6.27;52.44
31299;BME280;17927;52.350;13.402;2023-01-24T08:00:49;103652.81;;;6.29;52.33
31299;BME280;17927;52.350;13.402;2023-01-24T08:03:14;103651.03;;;6.29;52.55
31299;BME280;17927;52.350;13.402;2023-01-24T08:05:40;103647.44;;;6.29;52.51
31299;BME280;17927;52.350;13.402;2023-01-24T08:08:05;103648.34;;;6.29;52.40
31299;BME280;17927;52.350;13.402;2023-01-24T08:10:31;103660.00;;;6.28;52.27
31299;BME280;17927;52.350;13.402;2023-01-24T08:12:56;103657.31;;;6.28;52.52
31299;BME280;17927;52.350;13.402;2023-01-24T08:15:21;103654.63;;;6.28;52.67
31299;BME280;17927;52.350;13.402;2023-01-24T08:17:47;103661.78;;;6.29;52.67
31299;BME280;17927;52.350;13.402;2023-01-24T08:20:13;103659.09;;;6.29;52.52
31299;BME280;17927;52.350;13.402;2023-01-24T08:22:39;103659.91;;;6.31;52.31
31299;BME280;17927;52.350;13.402;2023-01-24T08:25:05;103674.16;;;6.33;52.43
31299;BME280;17927;52.350;13.402;2023-01-24T08:27:30;103677.75;;;6.34;52.57
31299;BME280;17927;52.350;13.402;2023-01-24T08:29:56;103673.25;;;6.34;52.38
31299;BME280;17927;52.350;13.402;2023-01-24T08:32:21;103666.03;;;6.36;52.74
31299;BME280;17927;52.350;13.402;2023-01-24T08:34:46;103664.25;;;6.37;52.64
31299;BME280;17927;52.350;13.402;2023-01-24T08:37:11;103677.59;;;6.38;52.54
31299;BME280;17927;52.350;13.402;2023-01-24T08:39:37;103682.94;;;6.40;52.71
31299;BME280;17927;52.350;13.402;2023-01-24T08:42:02;103670.38;;;6.40;52.78
31299;BME280;17927;52.350;13.402;2023-01-24T08:44:27;103669.47;;;6.42;52.41
31299;BME280;17927;52.350;13.402;2023-01-24T08:46:53;103666.78;;;6.42;52.44
31299;BME280;17927;52.350;13.402;2023-01-24T08:49:18;103663.13;;;6.44;52.54
31299;BME280;17927;52.350;13.402;2023-01-24T08:51:43;103666.69;;;6.45;52.63
31299;BME280;17927;52.350;13.402;2023-01-24T08:54:08;103663.97;;;6.46;52.61
31299;BME280;17927;52.350;13.402;2023-01-24T08:56:34;103665.66;;;6.49;52.20
31299;BME280;17927;52.350;13.402;2023-01-24T08:58:59;103679.00;;;6.52;52.53
31299;BME280;17927;52.350;13.402;2023-01-24T09:01:25;103665.59;;;6.52;52.32
31299;BME280;17927;52.350;13.402;2023-01-24T09:03:51;103664.66;;;6.53;52.58
31299;BME280;17927;52.350;13.402;2023-01-24T09:06:19;103669.06;;;6.55;52.40
31299;BME280;17927;52.350;13.402;2023-01-24T09:08:44;103672.63;;;6.56;52.38
31299;BME280;17927;52.350;13.402;2023-01-24T09:11:10;103673.50;;;6.57;52.33
31299;BME280;17927;52.350;13.402;2023-01-24T09:13:35;103673.50;;;6.57;52.41
31299;BME280;17927;52.350;13.402;2023-01-24T09:16:00;103669.06;;;6.55;52.43
31299;BME280;17927;52.350;13.402;2023-01-24T09:18:26;103668.19;;;6.55;52.29
31299;BME280;17927;52.350;13.402;2023-01-24T09:20:51;103671.72;;;6.55;52.50
31299;BME280;17927;52.350;13.402;2023-01-24T09:23:16;103674.41;;;6.57;52.43
31299;BME280;17927;52.350;13.402;2023-01-24T09:25:49;103672.56;;;6.58;52.16
31299;BME280;17927;52.350;13.402;2023-01-24T09:28:15;103675.25;;;6.58;52.32
31299;BME280;17927;52.350;13.402;2023-01-24T09:30:40;103679.69;;;6.60;52.41
31299;BME280;17927;52.350;13.402;2023-01-24T09:33:06;103684.94;;;6.63;52.31
31299;BME280;17927;52.350;13.402;2023-01-24T09:35:31;103675.09;;;6.64;52.50
31299;BME280;17927;52.350;13.402;2023-01-24T09:37:56;103684.00;;;6.66;52.44
31299;BME280;17927;52.350;13.402;2023-01-24T09:40:26;103682.16;;;6.68;52.36
31299;BME280;17927;52.350;13.402;2023-01-24T09:43:04;103684.72;;;6.71;52.38
31299;BME280;17927;52.350;13.402;2023-01-24T09:45:43;103683.78;;;6.72;52.42
31299;BME280;17927;52.350;13.402;2023-01-24T09:48:13;103678.41;;;6.72;52.24
31299;BME280;17927;52.350;13.402;2023-01-24T09:50:57;103687.28;;;6.76;51.98
31299;BME280;17927;52.350;13.402;2023-01-24T09:53:27;103684.53;;;6.77;52.57
31299;BME280;17927;52.350;13.402;2023-01-24T09:55:54;103680.94;;;6.78;52.34
31299;BME280;17927;52.350;13.402;2023-01-24T09:58:32;103679.94;;;6.81;52.02
31299;BME280;17927;52.350;13.402;2023-01-24T10:01:00;103675.50;;;6.80;52.26
31299;BME280;17927;52.350;13.402;2023-01-24T10:03:25;103674.53;;;6.82;52.20
31299;BME280;17927;52.350;13.402;2023-01-24T10:05:56;103667.31;;;6.84;52.47
31299;BME280;17927;52.350;13.402;2023-01-24T10:19:45;103657.13;;;6.94;52.47
31299;BME280;17927;52.350;13.402;2023-01-24T10:22:41;103654.44;;;6.94;52.33
31299;BME280;17927;52.350;13.402;2023-01-24T10:25:26;103647.31;;;6.93;52.16
31299;BME280;17927;52.350;13.402;2023-01-24T10:27:54;103644.59;;;6.95;52.22
31299;BME280;17927;52.350;13.402;2023-01-24T10:30:26;103638.22;;;6.97;52.36
31299;BME280;17927;52.350;13.402;2023-01-24T10:32:59;103637.22;;;7.01;52.44
31299;BME280;17927;52.350;13.402;2023-01-24T10:35:34;103635.34;;;7.04;52.25
31299;BME280;17927;52.350;13.402;2023-01-24T10:38:05;103638.88;;;7.06;52.22
31299;BME280;17927;52.350;13.402;2023-01-24T10:40:32;103634.38;;;7.06;52.30
31299;BME280;17927;52.350;13.402;2023-01-24T10:43:04;103637.81;;;7.10;52.15
31299;BME280;17927;52.350;13.402;2023-01-24T10:45:58;103635.00;;;7.14;52.36
31299;BME280;17927;52.350;13.402;2023-01-24T10:48:39;103633.13;;;7.16;52.17
31299;BME280;17927;52.350;13.402;2023-01-24T10:53:36;103629.38;;;7.22;52.55
31299;BME280;17927;52.350;13.402;2023-01-24T10:56:03;103640.00;;;7.25;52.11
31299;BME280;17927;52.350;13.402;2023-01-24T10:58:35;103633.69;;;7.28;52.05
31299;BME280;17927;52.350;13.402;2023-01-24T11:03:32;103645.13;;;7.33;52.34
31299;BME280;17927;52.350;13.402;2023-01-24T11:06:01;103645.03;;;7.36;51.92
31299;BME280;17927;52.350;13.402;2023-01-24T11:08:35;103637.03;;;7.35;52.25
31299;BME280;17927;52.350;13.402;2023-01-24T11:11:02;103640.50;;;7.38;51.95
31299;BME280;17927;52.350;13.402;2023-01-24T11:13:32;103634.13;;;7.41;52.05
31299;BME280;17927;52.350;13.402;2023-01-24T11:16:01;103640.41;;;7.41;52.13
31299;BME280;17927;52.350;13.402;2023-01-24T11:18:28;103635.78;;;7.45;52.05
31299;BME280;17927;52.350;13.402;2023-01-24T11:23:29;103641.16;;;7.45;52.02
31299;BME280;17927;52.350;13.402;2023-01-24T11:28:29;103642.84;;;7.49;51.71
31299;BME280;17927;52.350;13.402;2023-01-24T11:30:56;103633.84;;;7.50;51.69
31299;BME280;17927;52.350;13.402;2023-01-24T11:33:36;103631.91;;;7.54;51.95
31299;BME280;17927;52.350;13.402;2023-01-24T11:36:15;103622.97;;;7.53;51.62
31299;BME280;17927;52.350;13.402;2023-01-24T11:38:45;103627.44;;;7.54;52.21
31299;BME280;17927;52.350;13.402;2023-01-24T11:41:18;103626.38;;;7.58;52.01
31299;BME280;17927;52.350;13.402;2023-01-24T11:44:16;103629.03;;;7.60;51.92
31299;BME280;17927;52.350;13.402;2023-01-24T11:51:54;103621.59;;;7.67;51.80
31299;BME280;17927;52.350;13.402;2023-01-24T11:54:43;103611.72;;;7.67;51.68
31299;BME280;17927;52.350;13.402;2023-01-24T11:57:37;103615.22;;;7.69;51.71
31299;BME280;17927;52.350;13.402;2023-01-24T12:00:34;103615.22;;;7.69;51.91
31299;BME280;17927;52.350;13.402;2023-01-24T12:05:38;103616.81;;;7.75;51.65
31299;BME280;17927;52.350;13.402;2023-01-24T12:08:19;103612.28;;;7.77;51.95
31299;BME280;17927;52.350;13.402;2023-01-24T12:11:02;103603.25;;;7.78;51.99
31299;BME280;17927;52.350;13.402;2023-01-24T12:13:37;103605.94;;;7.78;51.62
31299;BME280;17927;52.350;13.402;2023-01-24T12:16:21;103605.84;;;7.81;51.61
31299;BME280;17927;52.350;13.402;2023-01-24T12:21:54;103605.84;;;7.81;51.57
31299;BME280;17927;52.350;13.402;2023-01-24T12:24:27;103595.91;;;7.83;51.39
31299;BME280;17927;52.350;13.402;2023-01-24T12:26:59;103594.03;;;7.85;51.76
31299;BME280;17927;52.350;13.402;2023-01-24T12:29:38;103590.38;;;7.86;51.53
31299;BME280;17927;52.350;13.402;2023-01-24T12:32:22;103592.16;;;7.87;51.45
31299;BME280;17927;52.350;13.402;2023-01-24T12:34:57;103587.69;;;7.86;51.70
31299;BME280;17927;52.350;13.402;2023-01-24T12:37:31;103597.53;;;7.87;51.87
31299;BME280;17927;52.350;13.402;2023-01-24T12:42:56;103596.50;;;7.91;51.69
31299;BME280;17927;52.350;13.402;2023-01-24T12:45:32;103592.94;;;7.91;51.89
31299;BME280;17927;52.350;13.402;2023-01-24T12:50:40;103597.31;;;7.93;51.64
31299;BME280;17927;52.350;13.402;2023-01-24T12:53:27;103599.16;;;7.93;51.47
31299;BME280;17927;52.350;13.402;2023-01-24T12:56:10;103591.94;;;7.93;51.59
31299;BME280;17927;52.350;13.402;2023-01-24T12:58:39;103596.47;;;7.93;51.52
31299;BME280;17927;52.350;13.402;2023-01-24T13:03:56;103609.91;;;7.93;51.68
31299;BME280;17927;52.350;13.402;2023-01-24T13:12:28;103597.66;;;7.84;51.78
31299;BME280;17927;52.350;13.402;2023-01-24T13:15:08;103586.91;;;7.84;51.51
31299;BME280;17927;52.350;13.402;2023-01-24T13:26:49;103587.88;;;7.82;51.73
31299;BME280;17927;52.350;13.402;2023-01-24T13:29:23;103591.00;;;7.69;51.86
31299;BME280;17927;52.350;13.402;2023-01-24T13:32:16;103589.16;;;7.71;51.80
31299;BME280;17927;52.350;13.402;2023-01-24T13:34:51;103586.38;;;7.73;51.67
31299;BME280;17927;52.350;13.402;2023-01-24T13:37:32;103580.91;;;7.76;51.65
31299;BME280;17927;52.350;13.402;2023-01-24T13:40:20;103580.03;;;7.75;51.65
31299;BME280;17927;52.350;13.402;2023-01-24T13:42:46;103578.28;;;7.74;51.84
31299;BME280;17927;52.350;13.402;2023-01-24T13:47:52;103580.88;;;7.77;51.61
31299;BME280;17927;52.350;13.402;2023-01-24T13:50:19;103579.88;;;7.80;51.54
31299;BME280;17927;52.350;13.402;2023-01-24T13:52:47;103576.25;;;7.81;51.28
31299;BME280;17927;52.350;13.402;2023-01-24T14:00:30;103573.56;;;7.81;51.48
31299;BME280;17927;52.350;13.402;2023-01-24T14:03:01;103578.88;;;7.83;51.15
31299;BME280;17927;52.350;13.402;2023-01-24T14:05:46;103578.03;;;7.81;51.29
31299;BME280;17927;52.350;13.402;2023-01-24T14:08:31;103584.41;;;7.78;51.06
31299;BME280;17927;52.350;13.402;2023-01-24T14:21:50;103573.09;;;7.68;51.76